Flight Track Log - Related Links

Times and Time Zones

All times are in EDT time to prevent confusion due to time zone crossing. See the PDT4373 flight status page for this flight to view local times or setup timezone preferences in your user account.

Time Position Orientation Groundspeed Altitude Reporting Facility
EDT Latitude Longitude Course Direction KTS MPH feet Rate Location/Type
Tue 10:01:32 AM 39.9000 -75.2333 303° West 128 147 400  Level Philadelphia TRACON
Tue 10:02:14 AM 39.9167 -75.2667 303° West 132 152 1,500 1,353 Climbing Philadelphia TRACON
Tue 10:03:14 AM 39.9167 -75.3167 270° West 144 166 2,700 1,150 Climbing Philadelphia TRACON
Tue 10:04:14 AM 39.9333 -75.3667 294° West 146 168 3,800 1,050 Climbing Philadelphia TRACON
Tue 10:05:14 AM 39.9500 -75.4000 303° West 146 168 4,800 1,000 Climbing Philadelphia TRACON
Tue 10:06:14 AM 39.9667 -75.4667 288° West 154 177 5,800 1,050 Climbing Philadelphia TRACON
Tue 10:07:14 AM 39.9500 -75.5167 247° West 151 174 6,900 1,091 Climbing Philadelphia TRACON
Tue 10:08:15 AM 39.9500 -75.5667 270° West 147 169 8,000 850 Climbing Philadelphia TRACON
Tue 10:09:14 AM 40.0000 -75.5833 346° North 236 272 8,600 557 Climbing Philadelphia TRACON
Tue 10:09:52 AM 40.0369 -75.5642 22° Northeast 225 259 8,900 245 Climbing New York Center
Tue 10:10:52 AM 40.0972 -75.5683 357° North 243 280 9,000 50 Climbing New York Center
Tue 10:11:52 AM 40.1683 -75.5653 North 266 306 9,000  Level New York Center
Tue 10:12:52 AM 40.2350 -75.5644 North 261 300 9,000 800 Level New York Center
Tue 10:13:52 AM 40.2700 -75.6239 308° West 198 228 10,600 1,350 Climbing New York Center
Tue 10:14:52 AM 40.3144 -75.6569 330° Northwest 181 208 11,700 800 Climbing New York Center
Tue 10:15:52 AM 40.3589 -75.6928 328° Northwest 176 203 12,200 800 Climbing New York Center
Tue 10:16:52 AM 40.3928 -75.7281 322° Northwest 181 208 13,300 900 Climbing New York Center
Tue 10:17:52 AM 40.4331 -75.7664 324° Northwest 181 208 14,000 350 Climbing New York Center
Tue 10:18:52 AM 40.4894 -75.8114 329° Northwest 202 232 14,000  Level New York Center
Tue 10:19:52 AM 40.5436 -75.8564 328° Northwest 221 254 14,000  Level New York Center
Tue 10:20:52 AM 40.6022 -75.9017 330° Northwest 232 267 14,000  Level New York Center
Tue 10:21:52 AM 40.6628 -75.9472 330° Northwest 237 273 14,000  Level New York Center
Tue 10:22:52 AM 40.7128 -75.9919 326° Northwest 242 278 14,000  Level New York Center
Tue 10:23:52 AM 40.7733 -76.0378 330° Northwest 248 285 14,000  Level New York Center
Tue 10:24:52 AM 40.8311 -76.0944 323° Northwest 243 280 14,000  Level New York Center
Tue 10:25:52 AM 40.8894 -76.1428 328° Northwest 243 280 14,000  Level New York Center
Tue 10:26:52 AM 40.9442 -76.1800 333° Northwest 243 280 14,000  Level New York Center
Tue 10:27:52 AM 41.0128 -76.2269 333° Northwest 249 287 14,000  Level New York Center
Tue 10:28:52 AM 41.0881 -76.2192 North 271 312 14,000  Level New York Center
Tue 10:29:52 AM 41.1678 -76.2089 North 277 319 14,000  Level New York Center
Tue 10:30:52 AM 41.2367 -76.2064 North 277 319 14,000  Level New York Center
Tue 10:31:52 AM 41.3161 -76.1961 North 277 319 14,000  Level New York Center
Tue 10:32:52 AM 41.4019 -76.1892 North 277 319 14,000 -100 Level New York Center
Tue 10:33:52 AM 41.4789 -76.1897 360° North 277 319 13,800 -800 Descending New York Center
Tue 10:34:52 AM 41.5628 -76.1800 North 285 328 12,400 -1,450 Descending New York Center
Tue 10:35:52 AM 41.6319 -76.1244 31° Northeast 296 341 10,900 -1,450 Descending New York Center
Tue 10:36:52 AM 41.7053 -76.0664 31° Northeast 308 354 9,500 -1,550 Descending New York Center
Tue 10:37:52 AM 41.7828 -76.0086 29° Northeast 300 345 7,800 -1,350 Descending New York Center
Tue 10:38:52 AM 41.8500 -75.9500 33° Northeast 294 338 6,800 -950 Descending New York Center
Tue 10:39:52 AM 41.9189 -75.8939 31° Northeast 289 333 5,900 -950 Descending New York Center
Tue 10:40:52 AM 41.9750 -75.8481 31° Northeast 273 314 4,900 -800 Descending New York Center
Tue 10:41:52 AM 42.0317 -75.8386 North 229 264 4,300 -450 Descending New York Center
Tue 10:42:52 AM 42.0700 -75.8694 329° Northwest 169 194 4,000 -300 Descending New York Center
Tue 10:43:52 AM 42.1103 -75.9006 330° Northwest 164 189 3,700 -550 Descending New York Center
Tue 10:44:52 AM 42.1486 -75.9314 329° Northwest 164 189 2,900 -750 Descending New York Center
Tue 10:45:52 AM 42.1767 -75.9531 330° Northwest 145 167 2,200 -700 Descending New York Center

Login

Don't have an account? Register now (free) for customized features, flight alerts, and more!